createdAt,value
2023-04-24T00:01:40.722Z,9.19
2023-04-24T00:04:11.446Z,9.17
2023-04-24T00:06:43.416Z,9.16
2023-04-24T00:09:12.873Z,9.21
2023-04-24T00:11:41.943Z,9.03
2023-04-24T00:14:11.247Z,8.95
2023-04-24T00:16:42.294Z,9.03
2023-04-24T00:19:13.338Z,9.15
2023-04-24T00:21:43.919Z,9.45
2023-04-24T00:24:13.174Z,9.70
2023-04-24T00:26:47.916Z,9.67
2023-04-24T00:29:17.214Z,9.51
2023-04-24T00:31:54.521Z,9.47
2023-04-24T00:34:23.795Z,9.33
2023-04-24T00:36:53.360Z,9.08
2023-04-24T00:39:23.536Z,9.01
2023-04-24T00:41:54.289Z,8.92
2023-04-24T00:44:23.919Z,8.82
2023-04-24T00:46:57.153Z,8.69
2023-04-24T00:49:27.781Z,8.57
2023-04-24T00:51:57.504Z,8.51
2023-04-24T00:54:26.658Z,8.47
2023-04-24T00:56:55.920Z,8.36
2023-04-24T00:59:25.332Z,8.28
2023-04-24T01:04:32.424Z,8.26
2023-04-24T01:07:01.702Z,8.17
2023-04-24T01:09:31.113Z,8.11
2023-04-24T01:12:01.492Z,8.07
2023-04-24T01:14:40.957Z,8.01
2023-04-24T01:17:14.196Z,7.98
2023-04-24T01:19:45.478Z,8.01
2023-04-24T01:22:17.759Z,7.85
2023-04-24T01:24:48.572Z,7.83
2023-04-24T01:27:18.330Z,7.85
2023-04-24T01:29:55.280Z,7.88
2023-04-24T01:32:24.900Z,7.87
2023-04-24T01:34:59.406Z,7.87
2023-04-24T01:37:32.284Z,7.85
2023-04-24T01:40:09.622Z,7.82
2023-04-24T01:42:39.019Z,7.88
2023-04-24T01:45:11.099Z,7.87
2023-04-24T01:47:41.395Z,7.92
2023-04-24T01:50:12.062Z,7.88
2023-04-24T01:52:44.022Z,7.84
2023-04-24T01:55:13.754Z,7.81
2023-04-24T01:57:43.252Z,7.81
2023-04-24T02:00:14.154Z,7.64
2023-04-24T02:02:47.376Z,7.78
2023-04-24T02:05:17.738Z,7.79
2023-04-24T02:07:48.977Z,7.81
2023-04-24T02:10:18.767Z,7.89
2023-04-24T02:12:49.290Z,7.83
2023-04-24T02:15:24.803Z,7.93
2023-04-24T02:17:54.533Z,7.90
2023-04-24T02:20:23.935Z,7.88
2023-04-24T02:23:05.348Z,7.97
2023-04-24T02:25:35.981Z,8.02
2023-04-24T02:28:05.262Z,8.05
2023-04-24T02:30:36.824Z,8.10
2023-04-24T02:33:11.720Z,8.13
2023-04-24T02:35:41.041Z,8.14
2023-04-24T02:38:12.656Z,8.19
2023-04-24T02:40:43.190Z,8.22
2023-04-24T02:43:13.983Z,8.23
2023-04-24T02:45:43.464Z,8.13
2023-04-24T02:48:12.969Z,8.26
2023-04-24T02:50:42.375Z,8.36
2023-04-24T02:53:24.999Z,8.45
2023-04-24T02:55:54.693Z,8.47
2023-04-24T02:58:24.088Z,8.51
2023-04-24T03:00:56.677Z,8.55
2023-04-24T03:03:26.996Z,8.62
2023-04-24T03:06:01.583Z,8.71
2023-04-24T03:08:32.984Z,8.76
2023-04-24T03:11:07.441Z,8.85
2023-04-24T03:13:37.921Z,8.91
2023-04-24T03:16:08.100Z,9.00
2023-04-24T03:18:37.687Z,9.09
2023-04-24T03:21:08.618Z,9.17
2023-04-24T03:23:43.535Z,9.26
2023-04-24T03:26:13.413Z,9.29
2023-04-24T03:28:53.383Z,9.41
2023-04-24T03:31:24.211Z,9.50
2023-04-24T03:33:53.900Z,9.59
2023-04-24T03:36:29.015Z,9.71
2023-04-24T03:39:06.096Z,9.94
2023-04-24T03:41:38.426Z,10.09
2023-04-24T03:44:14.101Z,9.98
2023-04-24T03:46:44.280Z,10.37
2023-04-24T03:49:28.367Z,10.44
2023-04-24T03:51:58.165Z,10.42
2023-04-24T03:54:32.650Z,10.54
2023-04-24T03:57:08.862Z,10.53
2023-04-24T03:59:42.781Z,10.68
2023-04-24T04:02:23.761Z,10.88
2023-04-24T04:04:58.534Z,11.08
2023-04-24T04:07:30.453Z,11.24
2023-04-24T04:10:01.792Z,11.45
2023-04-24T04:12:32.954Z,11.67
2023-04-24T04:15:02.221Z,12.09
2023-04-24T04:17:46.567Z,12.32
2023-04-24T04:20:16.201Z,12.41
2023-04-24T04:22:45.791Z,12.65
2023-04-24T04:25:27.219Z,13.04
2023-04-24T04:27:56.732Z,13.09
2023-04-24T04:33:06.091Z,13.15
2023-04-24T04:35:39.023Z,13.07
2023-04-24T04:38:13.520Z,13.25
2023-04-24T04:41:07.881Z,13.37
2023-04-24T04:43:38.888Z,13.53
2023-04-24T04:46:09.149Z,13.59
2023-04-24T04:49:00.238Z,13.64
2023-04-24T04:51:42.851Z,13.68
2023-04-24T04:54:13.407Z,13.69
2023-04-24T04:56:45.305Z,13.71
2023-04-24T04:59:15.305Z,13.81
2023-04-24T05:01:44.633Z,13.91
2023-04-24T05:04:16.371Z,13.94
2023-04-24T05:06:47.853Z,13.95
2023-04-24T05:09:17.231Z,13.92
2023-04-24T05:11:54.008Z,13.95
2023-04-24T05:14:25.173Z,13.98
2023-04-24T05:17:00.108Z,14.01
2023-04-24T05:19:29.768Z,14.02
2023-04-24T05:21:59.370Z,14.07
2023-04-24T05:24:34.462Z,14.09
2023-04-24T05:27:23.552Z,14.14
2023-04-24T05:29:53.320Z,14.13
2023-04-24T05:32:22.576Z,14.16
2023-04-24T05:34:51.821Z,14.19
2023-04-24T05:37:21.243Z,14.25
2023-04-24T05:39:50.789Z,14.36
2023-04-24T05:42:20.079Z,14.45
2023-04-24T05:45:04.415Z,14.54
2023-04-24T05:47:37.349Z,14.65
2023-04-24T05:50:17.744Z,14.73
2023-04-24T05:52:47.154Z,14.80
2023-04-24T05:55:27.429Z,14.90
2023-04-24T05:57:57.097Z,14.95
2023-04-24T06:00:30.092Z,14.95
2023-04-24T06:03:06.874Z,15.13
2023-04-24T06:05:36.925Z,15.20
2023-04-24T06:08:07.003Z,15.26
2023-04-24T06:10:40.947Z,15.31
2023-04-24T06:13:11.907Z,15.47
2023-04-24T06:15:46.697Z,15.48
2023-04-24T06:18:23.433Z,15.51
2023-04-24T06:20:53.035Z,15.57
2023-04-24T06:23:22.247Z,15.64
2023-04-24T06:25:57.113Z,15.73
2023-04-24T06:28:26.350Z,15.82
2023-04-24T06:30:57.933Z,15.93
2023-04-24T06:33:27.440Z,15.93
2023-04-24T06:35:56.843Z,16.14
2023-04-24T06:38:26.521Z,16.21
2023-04-24T06:40:55.833Z,16.23
2023-04-24T06:43:25.463Z,16.33
2023-04-24T06:45:54.886Z,16.45
2023-04-24T06:48:29.203Z,16.55
2023-04-24T06:50:58.716Z,16.66
2023-04-24T06:53:28.175Z,16.74
2023-04-24T06:55:57.652Z,16.81
2023-04-24T06:58:27.810Z,16.93
2023-04-24T07:00:57.622Z,16.98
2023-04-24T07:06:24.951Z,17.16
2023-04-24T07:08:54.482Z,17.20
2023-04-24T07:11:23.856Z,17.30
2023-04-24T07:13:53.197Z,17.32
2023-04-24T07:16:22.569Z,17.38
2023-04-24T07:21:28.807Z,17.46
2023-04-24T07:23:58.011Z,17.54
2023-04-24T07:26:28.044Z,17.60
2023-04-24T07:28:57.711Z,17.63
2023-04-24T07:31:31.291Z,17.68
2023-04-24T07:36:39.006Z,17.80
2023-04-24T07:39:08.873Z,17.84
2023-04-24T07:44:12.778Z,17.99
2023-04-24T07:46:42.593Z,18.07
2023-04-24T07:49:14.897Z,18.12
2023-04-24T07:51:45.283Z,18.14
2023-04-24T07:54:14.956Z,18.22
2023-04-24T07:56:49.909Z,17.99
2023-04-24T07:59:24.526Z,18.24
2023-04-24T08:01:54.788Z,18.33
2023-04-24T08:04:26.399Z,18.49
2023-04-24T08:07:08.329Z,18.69
2023-04-24T08:09:37.625Z,18.66
2023-04-24T08:12:07.413Z,18.69
2023-04-24T08:14:36.690Z,18.73
2023-04-24T08:17:20.999Z,18.80
2023-04-24T08:20:01.999Z,18.83
2023-04-24T08:22:40.524Z,18.79
2023-04-24T08:25:11.501Z,18.77
2023-04-24T08:30:23.877Z,18.72
2023-04-24T08:32:53.070Z,18.78
2023-04-24T08:35:24.692Z,18.79
2023-04-24T08:37:55.610Z,18.78
2023-04-24T08:40:31.035Z,18.64
2023-04-24T08:43:02.215Z,18.86
2023-04-24T08:45:32.373Z,18.97
2023-04-24T08:48:03.236Z,19.03
2023-04-24T08:50:35.710Z,19.08
2023-04-24T08:53:05.292Z,19.11
2023-04-24T08:55:54.588Z,19.21
2023-04-24T08:58:24.558Z,19.31
2023-04-24T09:00:54.187Z,19.33
2023-04-24T09:03:24.677Z,19.32
2023-04-24T09:06:00.083Z,19.37
2023-04-24T09:08:31.149Z,19.39
2023-04-24T09:11:03.486Z,19.48
2023-04-24T09:16:08.785Z,19.53
2023-04-24T09:18:38.080Z,19.55
2023-04-24T09:21:15.440Z,19.46
2023-04-24T09:24:00.160Z,19.68
2023-04-24T09:26:32.531Z,19.86
2023-04-24T09:29:02.551Z,19.95
2023-04-24T09:31:32.728Z,20.10
2023-04-24T09:34:08.433Z,20.17
2023-04-24T09:36:41.942Z,20.40
2023-04-24T09:39:13.128Z,20.46
2023-04-24T09:41:47.768Z,20.46
2023-04-24T09:44:24.016Z,20.49
2023-04-24T09:46:55.681Z,20.54
2023-04-24T09:49:25.574Z,20.86
2023-04-24T09:52:11.815Z,20.82
2023-04-24T09:54:43.388Z,20.77
2023-04-24T09:57:18.098Z,20.88
2023-04-24T09:59:50.179Z,20.78
2023-04-24T10:02:23.598Z,20.53
2023-04-24T10:05:00.069Z,20.42
2023-04-24T10:07:40.557Z,20.48
2023-04-24T10:10:10.700Z,20.45
2023-04-24T10:12:46.065Z,20.43
2023-04-24T10:15:17.220Z,20.41
2023-04-24T10:17:52.993Z,20.44
2023-04-24T10:20:27.171Z,20.40
2023-04-24T10:23:00.526Z,20.39
2023-04-24T10:25:32.217Z,20.46
2023-04-24T10:28:02.254Z,20.60
2023-04-24T10:30:35.570Z,20.51
2023-04-24T10:33:11.657Z,20.43
2023-04-24T10:35:48.487Z,20.36
2023-04-24T10:38:34.554Z,20.53
2023-04-24T10:41:16.789Z,20.55
2023-04-24T10:44:10.446Z,20.56
2023-04-24T10:46:42.970Z,20.65
2023-04-24T10:49:18.789Z,20.71
2023-04-24T10:51:50.245Z,20.56
2023-04-24T10:54:29.045Z,20.59
2023-04-24T10:57:33.833Z,20.31
2023-04-24T11:00:18.134Z,19.87
2023-04-24T11:02:53.576Z,19.67
2023-04-24T11:05:54.540Z,19.63
2023-04-24T11:08:36.493Z,19.73
2023-04-24T11:14:12.710Z,20.15
2023-04-24T11:16:54.682Z,20.33
2023-04-24T11:19:30.721Z,20.38
2023-04-24T11:22:03.757Z,20.59
2023-04-24T11:24:34.974Z,20.64
2023-04-24T11:27:25.085Z,20.59
2023-04-24T11:30:03.992Z,20.55
2023-04-24T11:32:39.546Z,20.47
2023-04-24T11:35:11.732Z,20.43
2023-04-24T11:37:43.209Z,20.34
2023-04-24T11:40:13.539Z,20.36
2023-04-24T11:42:46.635Z,20.29
2023-04-24T11:45:17.653Z,20.29
2023-04-24T11:47:48.164Z,19.96
2023-04-24T11:50:20.642Z,20.11
2023-04-24T11:55:32.482Z,20.05
2023-04-24T11:58:03.731Z,20.03
2023-04-24T12:00:34.926Z,20.16
2023-04-24T12:03:09.595Z,20.07
2023-04-24T12:05:39.626Z,19.97
2023-04-24T12:08:09.343Z,19.96
2023-04-24T12:10:43.758Z,20.06
2023-04-24T12:13:16.216Z,20.13
2023-04-24T12:15:50.753Z,20.13
2023-04-24T12:18:20.264Z,20.10
2023-04-24T12:20:49.599Z,20.05
2023-04-24T12:23:20.261Z,20.05
2023-04-24T12:25:49.653Z,20.15
2023-04-24T12:28:21.597Z,20.23
2023-04-24T12:30:52.028Z,20.39
2023-04-24T12:33:21.980Z,20.50
2023-04-24T12:35:56.133Z,20.42
2023-04-24T12:38:26.948Z,20.49
2023-04-24T12:41:05.500Z,20.48
2023-04-24T12:43:37.495Z,20.42
2023-04-24T12:51:56.703Z,20.45
2023-04-24T12:54:26.182Z,20.42
2023-04-24T12:56:56.493Z,20.42
2023-04-24T12:59:25.711Z,20.35
2023-04-24T13:01:55.225Z,20.34
2023-04-24T13:04:25.671Z,20.33
2023-04-24T13:06:57.399Z,20.29
2023-04-24T13:09:27.005Z,20.30
2023-04-24T13:11:57.397Z,20.33
2023-04-24T13:14:26.919Z,20.29
2023-04-24T13:16:56.341Z,20.41
2023-04-24T13:22:16.187Z,20.39
2023-04-24T13:24:45.659Z,20.35
2023-04-24T13:27:15.049Z,20.45
2023-04-24T13:29:49.480Z,20.45
2023-04-24T13:32:19.446Z,20.44
2023-04-24T13:34:50.923Z,20.39
2023-04-24T13:37:22.948Z,20.53
2023-04-24T13:39:52.561Z,20.40
2023-04-24T13:42:27.950Z,20.35
2023-04-24T13:45:06.092Z,20.37
2023-04-24T13:47:44.249Z,20.40
2023-04-24T13:50:13.680Z,20.40
2023-04-24T13:52:45.125Z,20.50
2023-04-24T13:55:14.634Z,20.60
2023-04-24T13:57:45.055Z,20.70
2023-04-24T14:00:21.850Z,20.77
2023-04-24T14:02:51.269Z,20.67
2023-04-24T14:05:23.272Z,20.62
2023-04-24T14:07:54.806Z,20.63
2023-04-24T14:10:24.081Z,20.70
2023-04-24T14:12:54.066Z,20.73
2023-04-24T14:15:28.531Z,20.78
2023-04-24T14:17:57.792Z,20.66
2023-04-24T14:20:32.855Z,20.49
2023-04-24T14:23:04.722Z,20.31
2023-04-24T14:25:34.325Z,20.19
2023-04-24T14:28:03.842Z,19.99
2023-04-24T14:30:33.370Z,20.00
2023-04-24T14:33:02.677Z,19.97
2023-04-24T14:35:33.633Z,19.88
2023-04-24T14:38:10.380Z,19.83
2023-04-24T14:43:12.856Z,19.73
2023-04-24T14:45:42.816Z,19.66
2023-04-24T14:48:18.761Z,19.61
2023-04-24T14:50:48.128Z,19.55
2023-04-24T14:53:19.831Z,19.50
2023-04-24T14:55:49.274Z,19.52
2023-04-24T14:58:18.607Z,19.54
2023-04-24T15:00:50.710Z,19.57
2023-04-24T15:03:22.026Z,19.56
2023-04-24T15:06:01.698Z,19.52
2023-04-24T15:08:33.131Z,19.50
2023-04-24T15:13:48.059Z,19.49
2023-04-24T15:16:17.882Z,19.46
2023-04-24T15:18:47.242Z,19.46
2023-04-24T15:21:16.557Z,19.48
2023-04-24T15:23:48.194Z,19.61
2023-04-24T15:26:18.059Z,19.68
2023-04-24T15:28:47.758Z,19.64
2023-04-24T15:31:17.112Z,19.54
2023-04-24T15:33:46.698Z,19.55
2023-04-24T15:36:21.978Z,19.38
2023-04-24T15:38:53.397Z,19.25
2023-04-24T15:41:22.827Z,19.20
2023-04-24T15:43:52.036Z,19.04
2023-04-24T15:46:22.445Z,18.86
2023-04-24T15:48:51.979Z,18.69
2023-04-24T15:51:21.420Z,18.50
2023-04-24T15:53:52.682Z,18.32
2023-04-24T15:56:28.197Z,18.15
2023-04-24T15:59:00.523Z,17.98
2023-04-24T16:01:30.888Z,17.88
2023-04-24T16:04:00.508Z,17.85
2023-04-24T16:06:35.539Z,17.66
2023-04-24T16:09:08.245Z,17.70
2023-04-24T16:11:42.561Z,17.75
2023-04-24T16:14:11.884Z,17.72
2023-04-24T16:16:41.152Z,17.56
2023-04-24T16:21:51.637Z,17.34
2023-04-24T16:24:33.031Z,16.92
2023-04-24T16:27:02.966Z,16.93
2023-04-24T16:29:32.949Z,16.75
2023-04-24T16:32:02.408Z,16.64
2023-04-24T16:34:31.691Z,16.56
2023-04-24T16:37:01.457Z,16.43
2023-04-24T16:39:33.845Z,16.27
2023-04-24T16:42:03.390Z,16.12
2023-04-24T16:44:33.660Z,16.11
2023-04-24T16:47:07.254Z,15.96
2023-04-24T16:49:36.722Z,15.87
2023-04-24T16:52:06.149Z,15.75
2023-04-24T16:54:37.544Z,15.73
2023-04-24T16:57:11.883Z,15.63
2023-04-24T17:02:16.807Z,15.46
2023-04-24T17:04:56.469Z,15.38
2023-04-24T17:07:26.087Z,15.32
2023-04-24T17:09:57.841Z,15.22
2023-04-24T17:12:27.302Z,15.20
2023-04-24T17:14:56.590Z,15.15
2023-04-24T17:17:25.969Z,15.15
2023-04-24T17:19:55.206Z,15.17
2023-04-24T17:22:39.222Z,15.26
2023-04-24T17:25:11.896Z,15.18
2023-04-24T17:27:41.333Z,15.03
2023-04-24T17:30:17.343Z,15.00
2023-04-24T17:32:51.767Z,15.00
2023-04-24T17:35:22.771Z,14.90
2023-04-24T17:37:57.383Z,14.83
2023-04-24T17:40:28.688Z,14.87
2023-04-24T17:42:58.007Z,14.96
2023-04-24T17:45:27.324Z,14.92
2023-04-24T17:47:56.804Z,14.79
2023-04-24T17:50:26.309Z,14.71
2023-04-24T17:52:55.628Z,14.72
2023-04-24T17:55:25.199Z,14.75
2023-04-24T17:57:57.093Z,14.74
2023-04-24T18:00:26.165Z,14.79
2023-04-24T18:03:00.616Z,14.76
2023-04-24T18:05:31.130Z,14.87
2023-04-24T18:08:01.348Z,14.86
2023-04-24T18:10:32.612Z,14.92
2023-04-24T18:13:04.395Z,15.03
2023-04-24T18:15:35.148Z,15.11
2023-04-24T18:18:09.748Z,15.09
2023-04-24T18:20:39.800Z,15.02
2023-04-24T18:23:10.598Z,15.13
2023-04-24T18:25:40.053Z,15.07
2023-04-24T18:28:15.547Z,14.95
2023-04-24T18:30:50.257Z,14.77
2023-04-24T18:33:20.426Z,14.60
2023-04-24T18:35:50.939Z,14.50
2023-04-24T18:38:20.167Z,14.38
2023-04-24T18:40:49.570Z,14.17
2023-04-24T18:43:20.823Z,14.05
2023-04-24T18:45:55.198Z,13.88
2023-04-24T18:48:24.896Z,13.85
2023-04-24T18:50:58.273Z,13.72
2023-04-24T18:53:27.769Z,13.62
2023-04-24T18:55:57.061Z,13.60
2023-04-24T18:58:33.410Z,13.68
2023-04-24T19:01:02.833Z,13.67
2023-04-24T19:03:32.359Z,13.58
2023-04-24T19:06:07.154Z,13.55
2023-04-24T19:08:38.178Z,13.43
2023-04-24T19:11:07.907Z,13.39
2023-04-24T19:13:39.089Z,13.41
2023-04-24T19:16:08.590Z,13.34
2023-04-24T19:18:37.893Z,13.35
2023-04-24T19:21:07.574Z,13.29
2023-04-24T19:23:39.481Z,13.20
2023-04-24T19:26:14.280Z,13.16
2023-04-24T19:28:45.527Z,13.06
2023-04-24T19:31:15.192Z,12.90
2023-04-24T19:36:34.577Z,12.59
2023-04-24T19:39:09.648Z,12.52
2023-04-24T19:41:39.085Z,12.53
2023-04-24T19:44:10.699Z,12.46
2023-04-24T19:46:39.735Z,12.41
2023-04-24T19:49:09.050Z,12.25
2023-04-24T19:51:39.871Z,12.19
2023-04-24T19:54:09.730Z,12.24
2023-04-24T19:56:45.028Z,12.32
2023-04-24T19:59:16.372Z,12.32
2023-04-24T20:01:45.837Z,12.28
2023-04-24T20:04:15.388Z,12.33
2023-04-24T20:06:44.922Z,12.46
2023-04-24T20:09:14.398Z,12.64
2023-04-24T20:11:45.360Z,12.73
2023-04-24T20:14:21.781Z,12.66
2023-04-24T20:16:51.112Z,12.72
2023-04-24T20:19:20.333Z,12.63
2023-04-24T20:21:54.990Z,12.58
2023-04-24T20:24:24.257Z,12.48
2023-04-24T20:26:53.706Z,12.53
2023-04-24T20:29:30.300Z,12.56
2023-04-24T20:32:00.158Z,12.49
2023-04-24T20:34:29.376Z,12.41
2023-04-24T20:37:03.946Z,12.36
2023-04-24T20:39:33.278Z,12.31
2023-04-24T20:42:02.585Z,12.18
2023-04-24T20:44:33.910Z,12.05
2023-04-24T20:47:03.526Z,11.99
2023-04-24T20:49:37.994Z,11.94
2023-04-24T20:52:07.702Z,11.80
2023-04-24T20:54:36.928Z,11.82
2023-04-24T20:57:06.365Z,11.89
2023-04-24T20:59:37.672Z,12.01
2023-04-24T21:04:41.827Z,11.99
2023-04-24T21:07:12.604Z,11.94
2023-04-24T21:09:41.948Z,11.83
2023-04-24T21:12:11.151Z,11.84
2023-04-24T21:14:42.490Z,11.80
2023-04-24T21:17:11.825Z,11.66
2023-04-24T21:19:40.926Z,11.59
2023-04-24T21:22:10.339Z,11.50
2023-04-24T21:24:39.502Z,11.47
2023-04-24T21:27:09.446Z,11.45
2023-04-24T21:29:39.158Z,11.42
2023-04-24T21:32:10.593Z,11.42
2023-04-24T21:34:40.023Z,11.45
2023-04-24T21:37:09.355Z,11.50
2023-04-24T21:39:38.856Z,11.57
2023-04-24T21:42:08.211Z,11.51
2023-04-24T21:44:48.583Z,11.44
2023-04-24T21:47:20.354Z,11.36
2023-04-24T21:49:49.888Z,11.33
2023-04-24T21:52:29.048Z,11.26
2023-04-24T21:54:59.604Z,11.28
2023-04-24T21:57:28.914Z,11.37
2023-04-24T22:00:03.422Z,11.44
2023-04-24T22:02:37.504Z,11.45
2023-04-24T22:05:14.458Z,11.47
2023-04-24T22:07:50.386Z,11.52
2023-04-24T22:10:25.239Z,11.52
2023-04-24T22:12:54.627Z,11.57
2023-04-24T22:15:24.027Z,11.62
2023-04-24T22:17:57.221Z,11.77
2023-04-24T22:20:26.572Z,11.84
2023-04-24T22:23:06.006Z,11.93
2023-04-24T22:25:35.537Z,11.93
2023-04-24T22:28:04.914Z,11.94
2023-04-24T22:30:35.032Z,12.07
2023-04-24T22:33:06.330Z,12.09
2023-04-24T22:35:36.942Z,12.01
2023-04-24T22:38:06.263Z,11.84
2023-04-24T22:40:36.047Z,11.88
2023-04-24T22:43:17.071Z,11.86
2023-04-24T22:45:46.370Z,11.77
2023-04-24T22:48:18.146Z,11.74
2023-04-24T22:50:47.019Z,11.75
2023-04-24T22:53:16.270Z,11.60
2023-04-24T22:55:46.055Z,11.54
2023-04-24T22:58:15.412Z,11.52
2023-04-24T23:00:45.811Z,11.49
2023-04-24T23:03:17.240Z,11.43
2023-04-24T23:05:46.684Z,11.22
2023-04-24T23:08:16.016Z,11.30
2023-04-24T23:10:51.948Z,11.13
2023-04-24T23:13:21.375Z,11.14
2023-04-24T23:15:53.266Z,11.08
2023-04-24T23:18:25.727Z,11.00
2023-04-24T23:20:55.047Z,11.01
2023-04-24T23:23:24.514Z,11.01
2023-04-24T23:25:53.865Z,11.02
2023-04-24T23:28:23.113Z,11.03
2023-04-24T23:30:52.409Z,11.08
2023-04-24T23:33:22.200Z,11.10
2023-04-24T23:35:59.906Z,11.06
2023-04-24T23:38:34.005Z,11.03
2023-04-24T23:41:13.628Z,11.01
2023-04-24T23:43:43.101Z,10.94
2023-04-24T23:46:12.374Z,10.94
2023-04-24T23:48:41.754Z,10.90
2023-04-24T23:51:13.050Z,10.83
2023-04-24T23:53:42.446Z,10.76
2023-04-24T23:56:11.644Z,10.70
2023-04-24T23:58:40.882Z,10.67
